Union Star, Missouri
Current Conditions -  °F | °C
As of 4:53 PM on Friday 28 Nov 2014 (Local Time) from KSTJ Reporting Station
Clear Clear  
Wind Chill: 50°   Ceiling: Unl
Heat Index: 50°   Visibility: 10mi
Dew Point: 33°   Wind: 6mph
Humidity: 52%   Direction: 140°SE
Pressure: 29.76"   Gusts: NA
Location:  39.98°N, 94.59°W
Report Text: KSTJ 282253Z AUTO 14005KT 10SM CLR 10/01 A2976 RMK AO2 SLP082 T01000006
Loading
Personal Weather Stations






























Interactive Weather Map New forecast layout! Learn more

10-Day Weather Forecast

Advertisements
Track Severe Weather on mobile